createdAt,value
2022-10-14T00:01:27.064Z,49.70
2022-10-14T00:04:11.187Z,50.70
2022-10-14T00:06:38.956Z,48.40
2022-10-14T00:09:09.007Z,46.90
2022-10-14T00:11:37.412Z,46.10
2022-10-14T00:14:12.631Z,44.60
2022-10-14T00:16:43.099Z,46.00
2022-10-14T00:19:12.679Z,47.90
2022-10-14T00:21:43.328Z,50.10
2022-10-14T00:24:16.194Z,49.70
2022-10-14T00:26:44.916Z,45.30
2022-10-14T00:29:19.013Z,43.40
2022-10-14T00:31:47.961Z,44.30
2022-10-14T00:34:17.139Z,43.30
2022-10-14T00:36:45.270Z,40.70
2022-10-14T00:39:16.700Z,41.40
2022-10-14T00:41:45.574Z,45.80
2022-10-14T00:44:13.393Z,44.70
2022-10-14T00:46:44.315Z,44.70
2022-10-14T00:49:39.147Z,45.50
2022-10-14T00:52:33.488Z,43.20
2022-10-14T00:55:06.785Z,42.00
2022-10-14T00:57:35.668Z,40.70
2022-10-14T01:00:13.532Z,41.40
2022-10-14T01:02:42.195Z,42.60
2022-10-14T01:05:27.217Z,41.10
2022-10-14T01:07:59.614Z,39.60
2022-10-14T01:10:54.905Z,38.20
2022-10-14T01:13:32.604Z,40.10
2022-10-14T01:16:24.041Z,40.50
2022-10-14T01:18:57.820Z,38.60
2022-10-14T01:21:31.501Z,39.20
2022-10-14T01:24:05.696Z,40.70
2022-10-14T01:26:58.071Z,40.10
2022-10-14T01:29:44.708Z,40.30
2022-10-14T01:32:47.105Z,34.80
2022-10-14T01:35:40.303Z,43.00
2022-10-14T01:38:28.996Z,42.40
2022-10-14T01:41:15.549Z,40.80
2022-10-14T01:43:47.247Z,40.10
2022-10-14T01:46:19.141Z,41.60
2022-10-14T01:48:53.563Z,41.00
2022-10-14T01:51:28.588Z,39.90
2022-10-14T01:54:11.200Z,38.70
2022-10-14T01:56:40.809Z,39.50
2022-10-14T01:59:12.653Z,40.90
2022-10-14T02:01:40.689Z,41.70
2022-10-14T02:04:20.641Z,39.00
2022-10-14T02:07:18.640Z,39.50
2022-10-14T02:09:58.922Z,41.20
2022-10-14T02:12:57.343Z,42.80
2022-10-14T02:15:40.266Z,40.90
2022-10-14T02:18:47.045Z,39.60
2022-10-14T02:21:39.816Z,42.00
2022-10-14T02:24:18.898Z,46.40
2022-10-14T02:26:50.091Z,52.50
2022-10-14T02:29:20.187Z,54.60
2022-10-14T02:31:49.425Z,62.90
2022-10-14T02:34:22.189Z,60.90
2022-10-14T02:36:50.791Z,61.30
2022-10-14T02:39:31.295Z,51.00
2022-10-14T02:41:59.193Z,59.60
2022-10-14T02:44:27.224Z,59.70
2022-10-14T02:46:57.910Z,57.70
2022-10-14T02:49:28.940Z,52.30
2022-10-14T02:51:57.081Z,46.30
2022-10-14T02:54:24.897Z,48.80
2022-10-14T02:56:52.915Z,51.10
2022-10-14T02:59:20.714Z,49.80
2022-10-14T03:01:50.005Z,47.30
2022-10-14T03:04:17.879Z,47.50
2022-10-14T03:06:45.789Z,48.20
2022-10-14T03:09:14.207Z,47.30
2022-10-14T03:11:42.174Z,43.10
2022-10-14T03:14:12.447Z,45.00
2022-10-14T03:16:40.383Z,46.50
2022-10-14T03:19:08.245Z,49.20
2022-10-14T03:21:46.413Z,47.10
2022-10-14T03:24:19.595Z,44.90
2022-10-14T03:26:50.579Z,49.40
2022-10-14T03:29:20.537Z,52.50
2022-10-14T03:32:02.933Z,44.40
2022-10-14T03:34:36.013Z,45.90
2022-10-14T03:37:06.525Z,42.80
2022-10-14T03:39:35.405Z,43.20
2022-10-14T03:42:07.385Z,42.50
2022-10-14T03:44:41.422Z,40.70
2022-10-14T03:47:28.431Z,41.90
2022-10-14T03:49:56.525Z,43.90
2022-10-14T03:52:32.407Z,41.30
2022-10-14T03:55:15.803Z,40.20
2022-10-14T03:57:44.232Z,39.70
2022-10-14T04:00:13.662Z,39.90
2022-10-14T04:02:42.328Z,41.60
2022-10-14T04:05:20.885Z,37.40
2022-10-14T04:07:49.550Z,39.90
2022-10-14T04:10:18.037Z,39.40
2022-10-14T04:12:50.988Z,41.00
2022-10-14T04:15:31.341Z,37.10
2022-10-14T04:18:16.338Z,39.40
2022-10-14T04:20:44.617Z,42.70
2022-10-14T04:23:12.782Z,45.00
2022-10-14T04:25:41.849Z,41.00
2022-10-14T04:28:09.680Z,41.70
2022-10-14T04:30:47.862Z,44.00
2022-10-14T04:33:20.109Z,46.00
2022-10-14T04:35:48.818Z,42.20
2022-10-14T04:38:24.291Z,39.60
2022-10-14T04:40:56.184Z,39.20
2022-10-14T04:43:28.992Z,39.60
2022-10-14T04:45:58.884Z,38.10
2022-10-14T04:48:29.778Z,35.60
2022-10-14T04:50:59.008Z,36.30
2022-10-14T04:53:57.454Z,37.30
2022-10-14T04:56:46.729Z,35.10
2022-10-14T04:59:15.432Z,33.20
2022-10-14T05:01:54.567Z,33.50
2022-10-14T05:04:22.742Z,34.70
2022-10-14T05:06:50.940Z,35.90
2022-10-14T05:09:19.606Z,34.00
2022-10-14T05:11:47.977Z,33.30
2022-10-14T05:14:18.801Z,34.20
2022-10-14T05:16:48.937Z,34.00
2022-10-14T05:27:47.713Z,38.00
2022-10-14T05:30:16.651Z,40.00
2022-10-14T05:32:47.967Z,39.40
2022-10-14T05:35:33.963Z,38.20
2022-10-14T05:38:06.886Z,38.70
2022-10-14T05:40:37.188Z,38.00
2022-10-14T05:43:05.123Z,38.80
2022-10-14T05:45:34.348Z,37.20
2022-10-14T05:48:02.970Z,35.80
2022-10-14T05:50:31.199Z,37.90
2022-10-14T05:53:02.791Z,39.00
2022-10-14T05:55:36.148Z,35.50
2022-10-14T05:58:04.176Z,35.50
2022-10-14T06:00:35.069Z,36.60
2022-10-14T06:03:05.297Z,38.20
2022-10-14T06:05:36.523Z,37.40
2022-10-14T06:08:05.161Z,34.70
2022-10-14T06:10:35.593Z,35.30
2022-10-14T06:13:03.694Z,37.80
2022-10-14T06:15:32.632Z,36.30
2022-10-14T06:18:01.441Z,36.20
2022-10-14T06:20:29.715Z,35.90
2022-10-14T06:23:02.554Z,36.70
2022-10-14T06:25:33.575Z,36.00
2022-10-14T06:28:05.685Z,34.20
2022-10-14T06:30:36.078Z,36.10
2022-10-14T06:33:04.363Z,35.90
2022-10-14T06:35:33.130Z,37.10
2022-10-14T06:38:01.670Z,35.20
2022-10-14T06:40:30.008Z,36.40
2022-10-14T06:42:59.048Z,37.50
2022-10-14T06:45:27.551Z,37.20
2022-10-14T06:47:56.703Z,36.20
2022-10-14T06:50:25.657Z,37.40
2022-10-14T06:52:55.374Z,39.70
2022-10-14T06:55:23.940Z,43.10
2022-10-14T06:57:52.362Z,38.10
2022-10-14T07:00:20.767Z,40.20
2022-10-14T07:02:50.016Z,39.10
2022-10-14T07:05:18.592Z,38.10
2022-10-14T07:07:49.594Z,34.20
2022-10-14T07:10:18.166Z,34.90
2022-10-14T07:12:47.293Z,35.30
2022-10-14T07:15:16.209Z,37.50
2022-10-14T07:17:44.146Z,35.50
2022-10-14T07:20:12.612Z,36.50
2022-10-14T07:22:40.866Z,37.80
2022-10-14T07:25:09.450Z,38.20
2022-10-14T07:30:44.580Z,34.70
2022-10-14T07:33:12.924Z,36.90
2022-10-14T07:35:41.247Z,39.30
2022-10-14T07:38:09.645Z,36.80
2022-10-14T07:40:37.764Z,37.00
2022-10-14T07:43:05.991Z,36.80
2022-10-14T07:45:36.807Z,40.60
2022-10-14T07:48:05.756Z,37.50
2022-10-14T07:50:34.305Z,35.40
2022-10-14T07:53:03.622Z,36.00
2022-10-14T07:55:32.154Z,34.70
2022-10-14T07:58:00.957Z,33.70
2022-10-14T08:00:28.849Z,33.40
2022-10-14T08:02:56.715Z,35.60
2022-10-14T08:05:37.615Z,32.50
2022-10-14T08:08:07.835Z,33.40
2022-10-14T08:10:37.376Z,33.60
2022-10-14T08:13:05.965Z,34.60
2022-10-14T08:15:40.766Z,32.90
2022-10-14T08:18:10.814Z,32.10
2022-10-14T08:20:41.370Z,36.20
2022-10-14T08:23:09.754Z,36.30
2022-10-14T08:25:38.036Z,34.80
2022-10-14T08:28:06.272Z,33.10
2022-10-14T08:30:35.257Z,32.80
2022-10-14T08:33:03.587Z,34.10
2022-10-14T08:35:31.975Z,34.20
2022-10-14T08:38:02.801Z,35.00
2022-10-14T08:40:44.661Z,33.40
2022-10-14T08:43:37.904Z,33.10
2022-10-14T08:46:38.843Z,33.50
2022-10-14T08:49:22.627Z,35.20
2022-10-14T08:52:19.017Z,33.90
2022-10-14T08:54:52.189Z,33.70
2022-10-14T08:57:29.902Z,33.50
2022-10-14T08:59:58.009Z,36.50
2022-10-14T09:02:42.072Z,36.70
2022-10-14T09:05:15.848Z,35.70
2022-10-14T09:07:47.665Z,35.20
2022-10-14T09:10:25.824Z,35.40
2022-10-14T09:12:56.657Z,33.60
2022-10-14T09:15:35.020Z,38.50
2022-10-14T09:18:12.559Z,34.50
2022-10-14T09:20:42.326Z,33.30
2022-10-14T09:23:18.825Z,33.80
2022-10-14T09:25:59.567Z,33.40
2022-10-14T09:28:36.433Z,34.30
2022-10-14T09:31:07.400Z,34.80
2022-10-14T09:33:42.366Z,33.70
2022-10-14T09:36:17.577Z,32.60
2022-10-14T09:38:53.340Z,32.80
2022-10-14T09:41:28.248Z,33.80
2022-10-14T09:44:18.665Z,34.80
2022-10-14T09:46:56.414Z,35.60
2022-10-14T09:49:47.150Z,35.10
2022-10-14T09:52:24.616Z,35.30
2022-10-14T09:54:55.923Z,33.90
2022-10-14T09:57:25.424Z,32.80
2022-10-14T09:59:58.948Z,31.80
2022-10-14T10:02:42.277Z,33.60
2022-10-14T10:05:27.357Z,31.20
2022-10-14T10:08:07.178Z,28.70
2022-10-14T10:10:35.374Z,28.20
2022-10-14T10:13:03.515Z,30.80
2022-10-14T10:15:31.461Z,29.20
2022-10-14T10:17:59.647Z,26.50
2022-10-14T10:20:33.988Z,26.20
2022-10-14T10:23:29.668Z,26.70
2022-10-14T10:26:15.642Z,27.70
2022-10-14T10:28:47.026Z,27.70
2022-10-14T10:31:21.453Z,26.50
2022-10-14T10:34:02.397Z,28.70
2022-10-14T10:36:43.621Z,28.20
2022-10-14T10:39:20.199Z,29.10
2022-10-14T10:42:13.185Z,29.30
2022-10-14T10:44:59.093Z,29.20
2022-10-14T10:47:37.674Z,27.80
2022-10-14T10:50:31.795Z,27.60
2022-10-14T10:53:13.896Z,27.40
2022-10-14T10:55:54.373Z,23.90
2022-10-14T10:58:35.547Z,23.40
2022-10-14T11:01:26.381Z,22.00
2022-10-14T11:04:14.037Z,23.20
2022-10-14T11:07:07.173Z,22.90
2022-10-14T11:10:09.298Z,24.10
2022-10-14T11:13:02.458Z,24.90
2022-10-14T11:15:41.961Z,25.20
2022-10-14T11:18:29.159Z,25.80
2022-10-14T11:21:11.157Z,25.60
2022-10-14T11:23:41.770Z,26.30
2022-10-14T11:29:28.176Z,27.00
2022-10-14T11:32:07.732Z,25.50
2022-10-14T11:34:43.632Z,25.40
2022-10-14T11:37:28.488Z,25.20
2022-10-14T11:40:21.717Z,25.50
2022-10-14T11:42:56.156Z,27.60
2022-10-14T11:45:48.834Z,28.10
2022-10-14T11:48:22.820Z,27.80
2022-10-14T11:50:57.185Z,27.40
2022-10-14T11:53:43.572Z,26.80
2022-10-14T11:56:29.780Z,25.10
2022-10-14T11:59:05.752Z,26.70
2022-10-14T12:01:41.951Z,25.60
2022-10-14T12:04:28.718Z,28.70
2022-10-14T12:07:13.412Z,24.60
2022-10-14T12:09:48.837Z,24.40
2022-10-14T12:12:23.618Z,25.50
2022-10-14T12:15:00.706Z,25.60
2022-10-14T12:17:40.294Z,26.50
2022-10-14T12:20:36.322Z,27.20
2022-10-14T12:23:13.321Z,27.50
2022-10-14T12:26:02.365Z,28.70
2022-10-14T12:28:38.018Z,28.60
2022-10-14T12:31:29.506Z,29.00
2022-10-14T12:34:19.169Z,27.20
2022-10-14T12:36:50.888Z,26.40
2022-10-14T12:39:23.718Z,29.80
2022-10-14T12:42:02.048Z,30.50
2022-10-14T12:45:07.178Z,29.50
2022-10-14T12:47:37.340Z,28.10
2022-10-14T12:50:16.758Z,28.00
2022-10-14T12:52:55.447Z,28.80
2022-10-14T12:55:28.262Z,29.60
2022-10-14T12:58:02.688Z,28.90
2022-10-14T13:00:36.303Z,31.70
2022-10-14T13:03:18.297Z,30.10
2022-10-14T13:05:48.008Z,30.10
2022-10-14T13:08:16.281Z,29.60
2022-10-14T13:11:00.323Z,30.60
2022-10-14T13:13:53.853Z,29.90
2022-10-14T13:16:25.008Z,30.90
2022-10-14T13:18:54.507Z,29.00
2022-10-14T13:21:35.144Z,30.20
2022-10-14T13:24:22.556Z,31.00
2022-10-14T13:26:53.429Z,31.20
2022-10-14T13:29:34.179Z,29.70
2022-10-14T13:32:39.887Z,32.20
2022-10-14T13:36:00.883Z,30.00
2022-10-14T13:38:44.534Z,31.80
2022-10-14T13:41:18.866Z,31.20
2022-10-14T13:43:47.404Z,30.20
2022-10-14T13:46:23.389Z,31.70
2022-10-14T13:48:56.349Z,30.50
2022-10-14T13:51:36.270Z,30.90
2022-10-14T13:54:12.125Z,31.10
2022-10-14T13:56:41.145Z,30.80
2022-10-14T13:59:43.428Z,30.30
2022-10-14T14:02:25.678Z,30.50
2022-10-14T14:04:58.025Z,30.30
2022-10-14T14:08:08.489Z,29.80
2022-10-14T14:10:25.684Z,30.00
2022-10-14T14:12:54.743Z,28.90
2022-10-14T14:15:29.676Z,28.50
2022-10-14T14:17:57.935Z,29.60
2022-10-14T14:20:35.463Z,30.80
2022-10-14T14:23:05.363Z,29.10
2022-10-14T14:25:35.395Z,28.70
2022-10-14T14:28:14.402Z,28.50
2022-10-14T14:30:57.493Z,29.00
2022-10-14T14:33:31.817Z,28.70
2022-10-14T14:36:03.074Z,27.60
2022-10-14T14:38:35.766Z,27.50
2022-10-14T14:41:19.538Z,26.40
2022-10-14T14:43:57.363Z,27.50
2022-10-14T14:46:40.733Z,27.60
2022-10-14T14:49:16.152Z,28.80
2022-10-14T14:51:48.144Z,28.70
2022-10-14T14:54:19.771Z,29.10
2022-10-14T14:57:03.354Z,28.80
2022-10-14T14:59:39.721Z,28.50
2022-10-14T15:02:20.708Z,28.10
2022-10-14T15:05:10.703Z,28.60
2022-10-14T15:07:43.550Z,28.20
2022-10-14T15:10:24.898Z,29.00
2022-10-14T15:12:57.278Z,28.90
2022-10-14T15:15:28.063Z,28.90
2022-10-14T15:18:15.013Z,29.80
2022-10-14T15:20:43.654Z,30.20
2022-10-14T15:23:38.569Z,30.20
2022-10-14T15:26:34.918Z,28.30
2022-10-14T15:29:14.789Z,29.00
2022-10-14T15:31:45.955Z,29.90
2022-10-14T15:34:21.818Z,28.60
2022-10-14T15:36:52.150Z,30.40
2022-10-14T15:39:22.041Z,30.30
2022-10-14T15:41:50.239Z,29.40
2022-10-14T15:44:19.601Z,28.20
2022-10-14T15:47:07.941Z,29.40
2022-10-14T15:49:41.724Z,29.60
2022-10-14T15:52:15.949Z,30.30
2022-10-14T15:54:46.315Z,29.70
2022-10-14T15:57:16.927Z,30.30
2022-10-14T15:59:51.191Z,30.90
2022-10-14T16:02:27.918Z,30.90
2022-10-14T16:05:28.724Z,31.40
2022-10-14T16:08:36.877Z,27.90
2022-10-14T16:11:23.044Z,31.80
2022-10-14T16:13:52.599Z,31.90
2022-10-14T16:16:33.905Z,30.40
2022-10-14T16:19:07.743Z,30.80
2022-10-14T16:21:53.748Z,30.10
2022-10-14T16:24:28.107Z,31.10
2022-10-14T16:26:57.178Z,31.50
2022-10-14T16:29:26.476Z,30.20
2022-10-14T16:31:57.178Z,37.30
2022-10-14T16:34:27.105Z,41.60
2022-10-14T16:36:55.318Z,42.80
2022-10-14T16:39:24.432Z,47.20
2022-10-14T16:41:53.399Z,47.20
2022-10-14T16:44:27.915Z,47.70
2022-10-14T16:47:17.755Z,47.60
2022-10-14T16:49:49.743Z,45.90
2022-10-14T16:52:22.998Z,46.40
2022-10-14T16:54:58.642Z,48.80
2022-10-14T16:57:31.897Z,53.10
2022-10-14T17:00:02.419Z,56.50
2022-10-14T17:02:33.100Z,55.90
2022-10-14T17:05:02.303Z,58.80
2022-10-14T17:07:30.723Z,66.60
2022-10-14T17:10:03.940Z,67.00
2022-10-14T17:12:32.964Z,64.50
2022-10-14T17:15:01.724Z,69.20
2022-10-14T17:17:30.203Z,65.90
2022-10-14T17:19:59.526Z,64.20
2022-10-14T17:22:28.625Z,76.20
2022-10-14T17:24:56.955Z,80.90
2022-10-14T17:27:26.262Z,78.40
2022-10-14T17:29:54.486Z,72.30
2022-10-14T17:32:22.797Z,70.80
2022-10-14T17:34:53.542Z,71.40
2022-10-14T17:37:22.398Z,69.20
2022-10-14T17:39:50.549Z,64.30
2022-10-14T17:42:20.277Z,60.60
2022-10-14T17:44:49.023Z,61.00
2022-10-14T17:47:17.758Z,57.00
2022-10-14T17:49:45.927Z,59.70
2022-10-14T17:52:21.642Z,60.70
2022-10-14T17:54:58.867Z,71.80
2022-10-14T17:57:31.702Z,83.50
2022-10-14T18:00:03.132Z,90.10
2022-10-14T18:02:42.670Z,81.60
2022-10-14T18:05:27.836Z,87.30
2022-10-14T18:08:06.841Z,86.50
2022-10-14T18:10:55.964Z,84.40
2022-10-14T18:13:30.908Z,101.00
2022-10-14T18:16:49.029Z,103.40
2022-10-14T18:23:09.676Z,128.70
2022-10-14T18:25:38.771Z,138.00
2022-10-14T18:28:13.370Z,130.40
2022-10-14T18:30:47.186Z,133.40
2022-10-14T18:33:17.664Z,122.90
2022-10-14T18:35:48.763Z,111.40
2022-10-14T18:38:27.981Z,113.70
2022-10-14T18:41:00.971Z,119.40
2022-10-14T18:43:33.571Z,119.10
2022-10-14T18:46:14.072Z,119.60
2022-10-14T18:48:48.613Z,124.00
2022-10-14T18:51:22.475Z,126.40
2022-10-14T18:54:00.335Z,122.80
2022-10-14T18:56:40.708Z,127.80
2022-10-14T18:59:15.646Z,127.50
2022-10-14T19:01:49.077Z,128.10
2022-10-14T19:04:20.742Z,123.10
2022-10-14T19:06:50.235Z,129.70
2022-10-14T19:09:30.351Z,118.70
2022-10-14T19:12:22.929Z,111.00
2022-10-14T19:14:51.815Z,109.00
2022-10-14T19:17:26.691Z,112.30
2022-10-14T19:20:00.744Z,112.70
2022-10-14T19:22:32.529Z,110.30
2022-10-14T19:25:01.240Z,112.70
2022-10-14T19:27:29.932Z,119.00
2022-10-14T19:29:59.058Z,113.50
2022-10-14T19:32:27.573Z,116.30
2022-10-14T19:34:58.674Z,115.20
2022-10-14T19:37:29.428Z,113.00
2022-10-14T19:39:59.472Z,107.40
2022-10-14T19:42:28.641Z,101.40
2022-10-14T19:48:51.247Z,101.10
2022-10-14T19:51:21.704Z,97.60
2022-10-14T19:53:51.611Z,94.10
2022-10-14T19:56:22.436Z,96.70
2022-10-14T19:58:54.090Z,105.20
2022-10-14T20:01:27.964Z,102.20
2022-10-14T20:04:00.786Z,98.10
2022-10-14T20:06:34.553Z,96.60
2022-10-14T20:09:07.495Z,101.00
2022-10-14T20:11:40.859Z,99.40
2022-10-14T20:14:11.255Z,97.10
2022-10-14T20:16:40.681Z,95.00
2022-10-14T20:19:09.423Z,91.40
2022-10-14T20:21:38.507Z,95.30
2022-10-14T20:24:07.142Z,86.50
2022-10-14T20:26:37.895Z,87.30
2022-10-14T20:29:07.755Z,86.20
2022-10-14T20:31:36.140Z,83.90
2022-10-14T20:34:10.146Z,83.40
2022-10-14T20:36:41.150Z,89.00
2022-10-14T20:39:11.051Z,81.90
2022-10-14T20:41:39.569Z,86.50
2022-10-14T20:44:08.420Z,86.00
2022-10-14T20:46:37.783Z,81.10
2022-10-14T20:49:07.000Z,71.40
2022-10-14T20:51:36.368Z,74.10
2022-10-14T20:54:08.414Z,71.90
2022-10-14T20:56:40.426Z,66.60
2022-10-14T20:59:12.178Z,59.40
2022-10-14T21:01:40.744Z,61.00
2022-10-14T21:04:09.154Z,64.60
2022-10-14T21:06:39.019Z,68.50
2022-10-14T21:09:08.615Z,59.70
2022-10-14T21:11:40.342Z,52.40
2022-10-14T21:14:08.995Z,51.60
2022-10-14T21:16:37.328Z,49.10
2022-10-14T21:19:09.760Z,51.10
2022-10-14T21:21:40.228Z,56.00
2022-10-14T21:24:14.541Z,59.90
2022-10-14T21:26:48.024Z,65.40
2022-10-14T21:29:16.496Z,70.50
2022-10-14T21:31:44.790Z,71.40
2022-10-14T21:34:15.067Z,75.30
2022-10-14T21:36:43.427Z,80.10
2022-10-14T21:39:15.239Z,82.90
2022-10-14T21:41:44.417Z,80.70
2022-10-14T21:44:20.046Z,88.70
2022-10-14T21:46:48.989Z,97.00
2022-10-14T21:49:19.645Z,80.80
2022-10-14T21:51:48.810Z,66.30
2022-10-14T21:54:17.178Z,62.20
2022-10-14T21:56:46.159Z,65.90
2022-10-14T21:59:14.867Z,63.80
2022-10-14T22:01:43.645Z,59.20
2022-10-14T22:04:11.791Z,61.70
2022-10-14T22:06:41.081Z,65.50
2022-10-14T22:09:11.548Z,63.80
2022-10-14T22:11:42.191Z,61.60
2022-10-14T22:14:17.649Z,60.30
2022-10-14T22:16:47.783Z,67.70
2022-10-14T22:19:16.144Z,67.30
2022-10-14T22:21:46.508Z,69.50
2022-10-14T22:24:14.992Z,73.50
2022-10-14T22:26:42.975Z,81.60
2022-10-14T22:29:16.160Z,83.00
2022-10-14T22:31:45.565Z,74.40
2022-10-14T22:34:16.871Z,81.50
2022-10-14T22:36:46.327Z,85.00
2022-10-14T22:39:17.738Z,76.60
2022-10-14T22:41:46.819Z,69.60
2022-10-14T22:44:17.649Z,68.30
2022-10-14T22:46:47.768Z,78.20
2022-10-14T22:49:17.448Z,76.10
2022-10-14T22:51:47.153Z,64.70
2022-10-14T22:54:15.934Z,62.10
2022-10-14T22:56:44.972Z,64.60
2022-10-14T22:59:15.495Z,66.90
2022-10-14T23:01:44.040Z,63.90
2022-10-14T23:04:12.783Z,65.10
2022-10-14T23:06:44.993Z,66.70
2022-10-14T23:09:13.086Z,69.00
2022-10-14T23:11:42.038Z,68.10
2022-10-14T23:14:10.356Z,66.70
2022-10-14T23:16:39.609Z,70.50
2022-10-14T23:19:09.267Z,72.80
2022-10-14T23:21:38.713Z,73.90
2022-10-14T23:24:10.695Z,65.80
2022-10-14T23:26:39.168Z,64.40
2022-10-14T23:29:11.750Z,64.30
2022-10-14T23:31:41.466Z,62.10
2022-10-14T23:34:14.364Z,61.40
2022-10-14T23:36:43.237Z,60.50
2022-10-14T23:39:11.560Z,59.60
2022-10-14T23:41:39.789Z,57.60
2022-10-14T23:44:08.016Z,56.90
2022-10-14T23:46:36.443Z,56.50
2022-10-14T23:49:21.549Z,58.00
2022-10-14T23:51:52.654Z,65.90
2022-10-14T23:54:21.193Z,60.40
2022-10-14T23:56:49.555Z,65.50
2022-10-14T23:59:17.720Z,68.70
